createdAt,value
2023-05-08T00:01:45.427Z,3.50
2023-05-08T00:04:14.944Z,3.20
2023-05-08T00:06:44.491Z,3.70
2023-05-08T00:09:13.603Z,3.40
2023-05-08T00:11:42.652Z,3.50
2023-05-08T00:14:11.891Z,3.20
2023-05-08T00:16:40.968Z,3.60
2023-05-08T00:19:09.894Z,3.90
2023-05-08T00:21:39.161Z,3.80
2023-05-08T00:24:08.207Z,3.90
2023-05-08T00:26:37.463Z,3.50
2023-05-08T00:29:06.861Z,3.20
2023-05-08T00:31:36.230Z,3.30
2023-05-08T00:34:05.306Z,3.10
2023-05-08T00:36:34.159Z,3.50
2023-05-08T00:39:03.629Z,3.30
2023-05-08T00:41:32.496Z,3.30
2023-05-08T00:44:01.581Z,3.00
2023-05-08T00:46:31.085Z,3.60
2023-05-08T00:49:00.408Z,2.90
2023-05-08T00:51:29.748Z,3.20
2023-05-08T00:54:00.192Z,3.70
2023-05-08T00:56:30.088Z,4.30
2023-05-08T00:58:59.646Z,3.70
2023-05-08T01:01:28.798Z,4.20
2023-05-08T01:03:58.409Z,3.60
2023-05-08T01:06:27.691Z,3.40
2023-05-08T01:08:56.816Z,3.10
2023-05-08T01:11:29.710Z,3.60
2023-05-08T01:14:18.038Z,2.80
2023-05-08T01:17:02.197Z,3.40
2023-05-08T01:22:41.134Z,2.30
2023-05-08T01:25:32.017Z,3.40
2023-05-08T01:28:38.419Z,2.80
2023-05-08T01:31:18.664Z,4.10
2023-05-08T01:33:51.677Z,3.50
2023-05-08T01:36:40.331Z,4.20
2023-05-08T01:39:21.901Z,3.30
2023-05-08T01:41:59.218Z,3.30
2023-05-08T01:44:35.601Z,3.50
2023-05-08T01:47:07.515Z,3.20
2023-05-08T01:52:21.895Z,3.00
2023-05-08T01:54:58.220Z,5.00
2023-05-08T01:57:29.005Z,3.20
2023-05-08T02:00:00.704Z,3.10
2023-05-08T02:02:30.977Z,3.40
2023-05-08T02:05:03.442Z,4.40
2023-05-08T02:07:35.530Z,3.90
2023-05-08T02:12:35.037Z,3.90
2023-05-08T02:15:05.385Z,3.20
2023-05-08T02:17:37.039Z,2.90
2023-05-08T02:20:09.030Z,2.80
2023-05-08T02:22:38.344Z,3.20
2023-05-08T02:25:08.470Z,2.60
2023-05-08T02:27:37.896Z,3.20
2023-05-08T02:30:07.783Z,3.00
2023-05-08T02:32:37.141Z,3.50
2023-05-08T02:35:07.353Z,3.30
2023-05-08T02:37:37.101Z,3.30
2023-05-08T02:40:06.933Z,3.70
2023-05-08T02:42:36.162Z,4.10
2023-05-08T02:45:06.103Z,3.40
2023-05-08T02:47:52.211Z,3.60
2023-05-08T02:50:33.635Z,3.60
2023-05-08T02:53:06.854Z,3.60
2023-05-08T02:55:53.260Z,3.10
2023-05-08T02:58:40.885Z,2.50
2023-05-08T03:01:29.174Z,3.20
2023-05-08T03:04:12.589Z,3.30
2023-05-08T03:06:47.155Z,2.70
2023-05-08T03:09:19.462Z,3.10
2023-05-08T03:11:50.297Z,2.60
2023-05-08T03:14:21.641Z,4.70
2023-05-08T03:16:51.758Z,4.50
2023-05-08T03:19:27.774Z,4.70
2023-05-08T03:21:58.276Z,4.00
2023-05-08T03:24:28.492Z,4.10
2023-05-08T03:26:58.725Z,3.40
2023-05-08T03:29:28.197Z,3.40
2023-05-08T03:31:58.860Z,3.70
2023-05-08T03:34:29.151Z,3.90
2023-05-08T03:36:58.532Z,4.10
2023-05-08T03:39:27.555Z,3.50
2023-05-08T03:41:57.000Z,3.40
2023-05-08T03:44:26.558Z,3.40
2023-05-08T03:46:56.872Z,4.60
2023-05-08T03:49:29.477Z,4.50
2023-05-08T03:51:59.416Z,4.80
2023-05-08T03:54:30.421Z,4.60
2023-05-08T03:56:59.358Z,4.40
2023-05-08T03:59:33.507Z,3.90
2023-05-08T04:02:27.065Z,4.20
2023-05-08T04:05:10.911Z,3.70
2023-05-08T04:08:00.219Z,4.20
2023-05-08T04:10:38.407Z,4.20
2023-05-08T04:15:52.646Z,3.50
2023-05-08T04:18:29.046Z,3.40
2023-05-08T04:20:59.189Z,3.80
2023-05-08T04:23:29.295Z,5.10
2023-05-08T04:25:59.670Z,5.50
2023-05-08T04:28:29.090Z,5.40
2023-05-08T04:30:58.950Z,5.80
2023-05-08T04:33:28.865Z,4.90
2023-05-08T04:36:00.272Z,4.80
2023-05-08T04:38:29.941Z,4.00
2023-05-08T04:40:58.983Z,4.30
2023-05-08T04:43:28.329Z,4.20
2023-05-08T04:45:57.435Z,4.20
2023-05-08T04:48:26.514Z,3.60
2023-05-08T04:50:55.824Z,4.00
2023-05-08T04:53:25.019Z,3.70
2023-05-08T04:55:54.486Z,3.60
2023-05-08T04:58:23.560Z,4.00
2023-05-08T05:00:52.719Z,3.90
2023-05-08T05:03:21.967Z,3.80
2023-05-08T05:05:58.921Z,3.80
2023-05-08T05:08:28.034Z,3.50
2023-05-08T05:10:57.027Z,3.40
2023-05-08T05:13:25.948Z,3.40
2023-05-08T05:15:56.464Z,3.50
2023-05-08T05:18:25.528Z,3.50
2023-05-08T05:20:55.204Z,3.20
2023-05-08T05:23:24.433Z,3.10
2023-05-08T05:25:54.125Z,3.10
2023-05-08T05:28:23.203Z,3.20
2023-05-08T05:30:52.621Z,3.50
2023-05-08T05:33:21.721Z,3.60
2023-05-08T05:35:51.212Z,3.80
2023-05-08T05:38:20.304Z,4.20
2023-05-08T05:40:49.611Z,4.10
2023-05-08T05:43:18.604Z,3.60
2023-05-08T05:45:47.722Z,3.60
2023-05-08T05:48:17.125Z,3.90
2023-05-08T05:50:46.651Z,3.30
2023-05-08T05:53:16.060Z,3.60
2023-05-08T05:55:45.224Z,3.20
2023-05-08T05:58:14.617Z,3.10
2023-05-08T06:00:43.873Z,3.20
2023-05-08T06:03:14.065Z,3.10
2023-05-08T06:05:43.441Z,2.80
2023-05-08T06:08:12.563Z,3.00
2023-05-08T06:10:41.625Z,2.70
2023-05-08T06:13:11.360Z,3.40
2023-05-08T06:15:40.632Z,3.20
2023-05-08T06:18:09.683Z,3.30
2023-05-08T06:20:39.359Z,2.90
2023-05-08T06:23:08.537Z,3.20
2023-05-08T06:25:37.571Z,2.90
2023-05-08T06:28:08.351Z,5.10
2023-05-08T06:30:37.845Z,4.30
2023-05-08T06:33:06.984Z,3.10
2023-05-08T06:35:36.994Z,3.00
2023-05-08T06:38:06.415Z,3.40
2023-05-08T06:40:35.866Z,2.80
2023-05-08T06:43:04.815Z,3.20
2023-05-08T06:45:34.012Z,3.30
2023-05-08T06:48:03.474Z,3.20
2023-05-08T06:50:32.695Z,3.40
2023-05-08T06:53:01.855Z,3.10
2023-05-08T06:55:30.858Z,2.70
2023-05-08T06:58:00.018Z,3.20
2023-05-08T07:00:29.137Z,3.50
2023-05-08T07:02:58.560Z,3.50
2023-05-08T07:05:27.906Z,3.00
2023-05-08T07:07:57.152Z,3.30
2023-05-08T07:10:26.246Z,3.30
2023-05-08T07:12:55.240Z,3.30
2023-05-08T07:15:26.178Z,3.10
2023-05-08T07:17:56.098Z,2.90
2023-05-08T07:20:25.211Z,2.90
2023-05-08T07:22:54.380Z,3.50
2023-05-08T07:25:23.609Z,3.20
2023-05-08T07:27:52.667Z,3.30
2023-05-08T07:30:21.752Z,2.60
2023-05-08T07:32:50.758Z,3.00
2023-05-08T07:35:19.862Z,3.40
2023-05-08T07:37:48.840Z,2.90
2023-05-08T07:40:17.936Z,3.40
2023-05-08T07:42:47.239Z,3.30
2023-05-08T07:45:16.789Z,3.00
2023-05-08T07:47:54.198Z,3.20
2023-05-08T07:50:24.324Z,3.70
2023-05-08T07:52:53.369Z,2.90
2023-05-08T07:55:22.304Z,3.20
2023-05-08T07:57:51.334Z,3.50
2023-05-08T08:00:20.762Z,2.90
2023-05-08T08:02:49.832Z,3.30
2023-05-08T08:05:19.399Z,3.30
2023-05-08T08:07:48.472Z,3.00
2023-05-08T08:10:17.533Z,2.30
2023-05-08T08:12:46.557Z,3.20
2023-05-08T08:15:15.908Z,2.90
2023-05-08T08:17:45.026Z,2.40
2023-05-08T08:20:14.603Z,2.40
2023-05-08T08:22:44.142Z,2.40
2023-05-08T08:25:13.335Z,2.30
2023-05-08T08:27:42.380Z,2.40
2023-05-08T08:30:17.659Z,2.80
2023-05-08T08:32:47.634Z,2.70
2023-05-08T08:35:17.372Z,2.10
2023-05-08T08:37:46.807Z,2.00
2023-05-08T08:40:16.109Z,2.20
2023-05-08T08:42:45.492Z,2.50
2023-05-08T08:45:14.887Z,1.90
2023-05-08T08:47:45.459Z,1.90
2023-05-08T08:50:16.019Z,2.20
2023-05-08T08:52:54.577Z,2.00
2023-05-08T08:55:24.007Z,1.90
2023-05-08T08:57:58.364Z,2.20
2023-05-08T09:00:32.099Z,2.30
2023-05-08T09:03:01.274Z,2.10
2023-05-08T09:05:30.815Z,2.50
2023-05-08T09:08:00.134Z,2.10
2023-05-08T09:10:29.174Z,2.40
2023-05-08T09:12:58.093Z,2.00
2023-05-08T09:15:27.227Z,2.40
2023-05-08T09:17:56.188Z,2.20
2023-05-08T09:20:25.598Z,2.40
2023-05-08T09:22:54.868Z,2.50
2023-05-08T09:25:23.931Z,2.60
2023-05-08T09:27:53.176Z,2.60
2023-05-08T09:30:22.483Z,3.00
2023-05-08T09:33:01.619Z,2.30
2023-05-08T09:35:36.645Z,2.50
2023-05-08T09:38:05.594Z,2.60
2023-05-08T09:40:34.578Z,2.50
2023-05-08T09:43:13.977Z,2.20
2023-05-08T09:45:43.041Z,2.30
2023-05-08T09:48:11.945Z,2.40
2023-05-08T09:50:42.954Z,2.30
2023-05-08T09:53:12.509Z,2.30
2023-05-08T09:55:48.266Z,2.00
2023-05-08T09:58:17.225Z,2.20
2023-05-08T10:00:46.138Z,2.40
2023-05-08T10:03:15.110Z,2.30
2023-05-08T10:05:46.325Z,2.30
2023-05-08T10:08:23.084Z,2.10
2023-05-08T10:10:52.152Z,2.00
2023-05-08T10:13:21.496Z,2.10
2023-05-08T10:15:54.924Z,2.30
2023-05-08T10:18:24.862Z,2.30
2023-05-08T10:20:54.906Z,2.20
2023-05-08T10:23:23.896Z,2.60
2023-05-08T10:25:56.468Z,2.10
2023-05-08T10:28:43.900Z,2.40
2023-05-08T10:31:14.966Z,2.50
2023-05-08T10:33:46.555Z,2.20
2023-05-08T10:36:16.068Z,2.30
2023-05-08T10:38:45.311Z,1.90
2023-05-08T10:41:14.311Z,2.10
2023-05-08T10:43:43.611Z,2.40
2023-05-08T10:46:23.278Z,2.00
2023-05-08T10:49:01.259Z,2.40
2023-05-08T10:51:40.889Z,2.20
2023-05-08T10:54:19.362Z,2.30
2023-05-08T10:56:49.100Z,2.20
2023-05-08T10:59:19.956Z,2.10
2023-05-08T11:01:49.762Z,2.40
2023-05-08T11:04:24.540Z,2.30
2023-05-08T11:06:53.911Z,2.30
2023-05-08T11:09:28.103Z,2.30
2023-05-08T11:12:01.957Z,1.90
2023-05-08T11:14:31.674Z,2.10
2023-05-08T11:17:03.302Z,2.20
2023-05-08T11:22:22.190Z,2.00
2023-05-08T11:25:04.903Z,2.20
2023-05-08T11:27:35.371Z,2.20
2023-05-08T11:30:23.558Z,2.20
2023-05-08T11:33:05.390Z,2.10
2023-05-08T11:35:54.239Z,2.50
2023-05-08T11:38:23.265Z,2.00
2023-05-08T11:40:58.394Z,2.30
2023-05-08T11:43:32.084Z,2.30
2023-05-08T11:46:08.690Z,2.10
2023-05-08T11:48:37.746Z,2.30
2023-05-08T11:51:06.959Z,2.30
2023-05-08T11:53:36.629Z,2.40
2023-05-08T11:56:06.047Z,2.00
2023-05-08T11:58:36.687Z,2.60
2023-05-08T12:01:06.180Z,2.40
2023-05-08T12:03:35.264Z,2.30
2023-05-08T12:06:04.604Z,2.50
2023-05-08T12:08:39.200Z,2.30
2023-05-08T12:11:08.189Z,2.50
2023-05-08T12:13:37.206Z,2.40
2023-05-08T12:16:07.221Z,2.50
2023-05-08T12:21:05.199Z,2.60
2023-05-08T12:23:34.170Z,2.30
2023-05-08T12:26:03.660Z,2.90
2023-05-08T12:28:32.857Z,2.20
2023-05-08T12:31:02.023Z,2.50
2023-05-08T12:33:31.038Z,2.30
2023-05-08T12:36:01.001Z,2.50
2023-05-08T12:38:30.256Z,2.90
2023-05-08T12:41:00.840Z,2.40
2023-05-08T12:43:34.796Z,2.10
2023-05-08T12:46:05.023Z,2.40
2023-05-08T12:48:34.033Z,2.20
2023-05-08T12:51:04.357Z,1.80
2023-05-08T12:53:33.583Z,2.10
2023-05-08T12:56:04.066Z,2.30
2023-05-08T12:58:34.698Z,2.70
2023-05-08T13:01:10.338Z,3.40
2023-05-08T13:03:40.536Z,2.50
2023-05-08T13:06:22.324Z,2.00
2023-05-08T13:08:57.796Z,1.90
2023-05-08T13:11:31.719Z,1.90
2023-05-08T13:14:00.790Z,2.00
2023-05-08T13:16:29.824Z,1.70
2023-05-08T13:18:58.749Z,1.80
2023-05-08T13:21:28.082Z,1.60
2023-05-08T13:23:57.421Z,2.00
2023-05-08T13:26:26.353Z,2.10
2023-05-08T13:28:56.600Z,1.90
2023-05-08T13:31:26.151Z,1.90
2023-05-08T13:33:55.283Z,2.10
2023-05-08T13:36:24.544Z,1.80
2023-05-08T13:38:57.364Z,1.70
2023-05-08T13:41:26.300Z,1.90
2023-05-08T13:43:55.302Z,2.30
2023-05-08T13:46:25.007Z,1.70
2023-05-08T13:48:54.590Z,1.90
2023-05-08T13:51:23.476Z,2.20
2023-05-08T13:53:52.538Z,1.90
2023-05-08T13:56:22.567Z,2.00
2023-05-08T13:58:52.421Z,2.00
2023-05-08T14:01:26.271Z,1.70
2023-05-08T14:03:56.224Z,1.80
2023-05-08T14:06:25.464Z,2.00
2023-05-08T14:08:56.269Z,2.20
2023-05-08T14:11:27.360Z,2.70
2023-05-08T14:13:56.327Z,1.90
2023-05-08T14:16:25.433Z,2.00
2023-05-08T14:18:54.406Z,1.90
2023-05-08T14:21:23.327Z,1.60
2023-05-08T14:23:52.422Z,1.90
2023-05-08T14:26:21.562Z,1.80
2023-05-08T14:28:50.656Z,2.10
2023-05-08T14:31:19.699Z,2.00
2023-05-08T14:33:48.784Z,2.00
2023-05-08T14:36:17.685Z,3.80
2023-05-08T14:38:47.005Z,1.90
2023-05-08T14:41:16.035Z,2.20
2023-05-08T14:43:45.274Z,1.90
2023-05-08T14:46:14.159Z,2.00
2023-05-08T14:48:43.174Z,1.90
2023-05-08T14:51:12.772Z,2.10
2023-05-08T14:53:41.891Z,2.00
2023-05-08T14:56:11.399Z,1.90
2023-05-08T14:58:40.714Z,2.20
2023-05-08T15:01:09.635Z,1.60
2023-05-08T15:03:38.623Z,1.70
2023-05-08T15:06:07.838Z,1.60
2023-05-08T15:08:36.820Z,1.70
2023-05-08T15:11:05.775Z,2.00
2023-05-08T15:13:34.910Z,2.20
2023-05-08T15:16:04.003Z,1.80
2023-05-08T15:18:32.866Z,2.00
2023-05-08T15:21:01.763Z,1.90
2023-05-08T15:23:30.719Z,2.10
2023-05-08T15:25:59.735Z,2.10
2023-05-08T15:28:28.749Z,1.70
2023-05-08T15:30:57.777Z,1.80
2023-05-08T15:33:26.766Z,1.80
2023-05-08T15:35:55.736Z,2.00
2023-05-08T15:38:24.965Z,1.70
2023-05-08T15:40:53.883Z,1.90
2023-05-08T15:43:22.817Z,1.80
2023-05-08T15:45:51.800Z,1.90
2023-05-08T15:48:20.743Z,1.90
2023-05-08T15:50:49.691Z,1.90
2023-05-08T15:53:18.763Z,1.60
2023-05-08T15:55:47.819Z,1.70
2023-05-08T15:58:17.532Z,1.60
2023-05-08T16:00:46.640Z,2.00
2023-05-08T16:03:16.005Z,1.70
2023-05-08T16:05:45.157Z,1.90
2023-05-08T16:08:14.111Z,2.00
2023-05-08T16:10:43.087Z,1.90
2023-05-08T16:13:12.026Z,2.30
2023-05-08T16:15:41.365Z,1.90
2023-05-08T16:18:10.378Z,2.00
2023-05-08T16:20:42.513Z,1.80
2023-05-08T16:23:11.598Z,1.90
2023-05-08T16:25:40.592Z,1.90
2023-05-08T16:28:09.505Z,1.80
2023-05-08T16:30:38.416Z,1.80
2023-05-08T16:33:07.571Z,2.30
2023-05-08T16:35:36.496Z,1.60
2023-05-08T16:38:06.281Z,1.90
2023-05-08T16:40:36.000Z,1.80
2023-05-08T16:43:04.955Z,2.10
2023-05-08T16:45:35.497Z,2.00
2023-05-08T16:48:04.746Z,1.70
2023-05-08T16:50:33.811Z,1.60
2023-05-08T16:53:03.902Z,2.10
2023-05-08T16:55:32.830Z,1.70
2023-05-08T16:58:01.765Z,1.80
2023-05-08T17:00:30.909Z,2.00
2023-05-08T17:03:00.313Z,1.90
2023-05-08T17:05:29.445Z,2.10
2023-05-08T17:07:58.376Z,2.00
2023-05-08T17:10:27.257Z,1.70
2023-05-08T17:12:56.432Z,1.70
2023-05-08T17:15:25.351Z,1.70
2023-05-08T17:17:56.091Z,1.90
2023-05-08T17:20:25.024Z,1.60
2023-05-08T17:22:54.322Z,1.80
2023-05-08T17:25:23.428Z,1.60
2023-05-08T17:27:52.439Z,2.30
2023-05-08T17:30:21.357Z,1.90
2023-05-08T17:32:51.868Z,1.70
2023-05-08T17:35:21.485Z,2.30
2023-05-08T17:37:50.536Z,2.20
2023-05-08T17:40:19.499Z,2.10
2023-05-08T17:42:48.427Z,1.80
2023-05-08T17:45:17.548Z,1.90
2023-05-08T17:47:46.566Z,2.00
2023-05-08T17:50:15.839Z,2.20
2023-05-08T17:52:44.810Z,2.10
2023-05-08T17:55:13.810Z,2.00
2023-05-08T17:57:42.790Z,2.20
2023-05-08T18:00:12.556Z,1.90
2023-05-08T18:02:41.844Z,1.90
2023-05-08T18:05:10.894Z,2.00
2023-05-08T18:07:39.778Z,1.90
2023-05-08T18:10:09.233Z,2.00
2023-05-08T18:12:38.129Z,2.00
2023-05-08T18:15:08.008Z,2.20
2023-05-08T18:17:37.068Z,2.20
2023-05-08T18:20:07.998Z,1.80
2023-05-08T18:22:37.205Z,2.30
2023-05-08T18:25:06.504Z,2.40
2023-05-08T18:27:35.730Z,2.40
2023-05-08T18:30:05.212Z,2.70
2023-05-08T18:32:35.322Z,2.50
2023-05-08T18:35:04.656Z,2.90
2023-05-08T18:37:33.565Z,2.70
2023-05-08T18:40:02.502Z,3.80
2023-05-08T18:42:31.404Z,3.30
2023-05-08T18:45:00.967Z,3.70
2023-05-08T18:47:29.836Z,3.30
2023-05-08T18:50:00.058Z,3.30
2023-05-08T18:52:29.057Z,3.50
2023-05-08T18:54:58.121Z,3.50
2023-05-08T18:57:27.025Z,3.50
2023-05-08T18:59:56.031Z,4.00
2023-05-08T19:02:27.931Z,3.70
2023-05-08T19:04:57.800Z,3.60
2023-05-08T19:07:26.778Z,3.30
2023-05-08T19:09:55.944Z,3.90
2023-05-08T19:12:24.953Z,3.90
2023-05-08T19:14:55.275Z,4.10
2023-05-08T19:17:24.327Z,4.70
2023-05-08T19:19:53.201Z,5.30
2023-05-08T19:22:22.246Z,3.80
2023-05-08T19:24:51.152Z,4.50
2023-05-08T19:27:20.181Z,4.50
2023-05-08T19:29:49.201Z,4.30
2023-05-08T19:32:18.112Z,4.30
2023-05-08T19:34:47.024Z,4.50
2023-05-08T19:37:16.081Z,4.60
2023-05-08T19:39:45.001Z,4.20
2023-05-08T19:42:14.046Z,4.60
2023-05-08T19:44:43.177Z,4.50
2023-05-08T19:47:12.231Z,4.30
2023-05-08T19:49:41.278Z,4.50
2023-05-08T19:52:10.230Z,4.30
2023-05-08T19:54:39.158Z,4.50
2023-05-08T19:57:08.081Z,4.40
2023-05-08T19:59:37.039Z,4.40
2023-05-08T20:02:06.573Z,4.60
2023-05-08T20:04:48.731Z,4.90
2023-05-08T20:07:24.520Z,4.60
2023-05-08T20:09:53.476Z,4.50
2023-05-08T20:12:22.503Z,4.90
2023-05-08T20:14:53.101Z,4.60
2023-05-08T20:17:22.026Z,4.30
2023-05-08T20:19:51.237Z,4.70
2023-05-08T20:22:20.150Z,4.80
2023-05-08T20:24:49.102Z,4.90
2023-05-08T20:27:18.176Z,4.60
2023-05-08T20:29:47.446Z,4.80
2023-05-08T20:32:19.215Z,5.00
2023-05-08T20:37:17.146Z,4.50
2023-05-08T20:39:46.007Z,4.50
2023-05-08T20:42:14.922Z,4.60
2023-05-08T20:44:44.236Z,4.20
2023-05-08T20:47:13.376Z,4.70
2023-05-08T20:49:42.313Z,4.60
2023-05-08T20:52:11.916Z,4.60
2023-05-08T20:54:40.871Z,5.00
2023-05-08T20:57:09.782Z,5.20
2023-05-08T20:59:38.954Z,5.20
2023-05-08T21:02:07.895Z,4.50
2023-05-08T21:04:37.031Z,5.00
2023-05-08T21:07:06.404Z,4.90
2023-05-08T21:09:35.439Z,5.00
2023-05-08T21:12:04.588Z,4.50
2023-05-08T21:14:34.130Z,4.10
2023-05-08T21:17:03.683Z,3.80
2023-05-08T21:19:32.708Z,3.80
2023-05-08T21:22:01.686Z,3.90
2023-05-08T21:24:30.768Z,3.60
2023-05-08T21:26:59.959Z,3.90
2023-05-08T21:29:29.024Z,3.60
2023-05-08T21:31:57.949Z,3.50
2023-05-08T21:34:27.220Z,3.40
2023-05-08T21:36:56.231Z,3.50
2023-05-08T21:39:25.145Z,3.20
2023-05-08T21:41:54.121Z,3.20
2023-05-08T21:44:23.086Z,3.50
2023-05-08T21:46:51.958Z,3.40
2023-05-08T21:49:21.002Z,2.90
2023-05-08T21:51:50.014Z,2.90
2023-05-08T21:54:22.610Z,3.10
2023-05-08T21:56:51.619Z,3.00
2023-05-08T21:59:20.906Z,2.80
2023-05-08T22:01:49.860Z,2.90
2023-05-08T22:04:18.830Z,3.20
2023-05-08T22:06:47.936Z,3.30
2023-05-08T22:09:16.978Z,3.10
2023-05-08T22:11:46.026Z,2.60
2023-05-08T22:14:14.923Z,3.50
2023-05-08T22:16:43.834Z,2.80
2023-05-08T22:19:12.743Z,3.10
2023-05-08T22:21:42.536Z,3.20
2023-05-08T22:24:11.411Z,3.00
2023-05-08T22:26:40.598Z,3.00
2023-05-08T22:29:09.583Z,3.10
2023-05-08T22:31:38.584Z,3.60
2023-05-08T22:34:07.580Z,2.90
2023-05-08T22:36:36.687Z,3.20
2023-05-08T22:39:12.212Z,3.50
2023-05-08T22:41:41.408Z,3.30
2023-05-08T22:44:11.189Z,3.30
2023-05-08T22:46:40.978Z,3.60
2023-05-08T22:49:10.333Z,3.60
2023-05-08T22:51:39.229Z,3.20
2023-05-08T22:54:08.249Z,3.40
2023-05-08T22:56:38.363Z,4.00
2023-05-08T22:59:07.309Z,3.20
2023-05-08T23:01:36.278Z,4.50
2023-05-08T23:04:05.966Z,4.30
2023-05-08T23:06:35.126Z,3.90
2023-05-08T23:09:04.484Z,3.50
2023-05-08T23:11:33.477Z,4.10
2023-05-08T23:14:02.605Z,3.60
2023-05-08T23:16:31.607Z,4.70
2023-05-08T23:19:00.763Z,3.80
2023-05-08T23:21:29.647Z,4.20
2023-05-08T23:23:59.124Z,4.70
2023-05-08T23:26:28.133Z,4.20
2023-05-08T23:28:57.025Z,4.30
2023-05-08T23:31:26.132Z,4.20
2023-05-08T23:33:55.268Z,4.10
2023-05-08T23:36:24.182Z,4.10
2023-05-08T23:38:53.126Z,3.80
2023-05-08T23:41:22.123Z,3.20
2023-05-08T23:43:51.144Z,3.60
2023-05-08T23:46:20.118Z,3.50
2023-05-08T23:48:49.072Z,3.10
2023-05-08T23:51:18.112Z,3.00
2023-05-08T23:53:47.275Z,2.80
2023-05-08T23:56:16.517Z,3.20
2023-05-08T23:58:45.531Z,3.10
